createdAt,value
2022-09-27T00:00:16.972Z,25.27
2022-09-27T00:01:18.937Z,25.18
2022-09-27T00:02:20.845Z,25.22
2022-09-27T00:03:22.659Z,25.25
2022-09-27T00:04:24.507Z,25.13
2022-09-27T00:05:26.281Z,25.26
2022-09-27T00:06:30.800Z,24.58
2022-09-27T00:07:33.149Z,25.29
2022-09-27T00:08:36.016Z,25.35
2022-09-27T00:09:38.555Z,25.25
2022-09-27T00:10:40.273Z,25.10
2022-09-27T00:11:45.890Z,25.23
2022-09-27T00:12:48.421Z,25.25
2022-09-27T00:13:50.232Z,25.15
2022-09-27T00:14:52.004Z,25.24
2022-09-27T00:16:01.354Z,25.08
2022-09-27T00:17:03.399Z,25.02
2022-09-27T00:18:05.172Z,25.10
2022-09-27T00:19:12.043Z,25.33
2022-09-27T00:20:13.899Z,24.91
2022-09-27T00:21:16.163Z,25.29
2022-09-27T00:22:17.967Z,25.32
2022-09-27T00:23:20.430Z,25.32
2022-09-27T00:24:23.245Z,25.16
2022-09-27T00:25:25.006Z,25.13
2022-09-27T00:26:27.708Z,25.16
2022-09-27T00:27:29.606Z,25.23
2022-09-27T00:28:31.781Z,25.16
2022-09-27T00:29:33.705Z,25.17
2022-09-27T00:30:35.759Z,25.02
2022-09-27T00:31:38.192Z,25.31
2022-09-27T00:32:40.196Z,24.48
2022-09-27T00:33:41.960Z,25.31
2022-09-27T00:34:44.119Z,24.90
2022-09-27T00:35:46.609Z,25.21
2022-09-27T00:36:49.485Z,25.29
2022-09-27T00:37:51.780Z,24.96
2022-09-27T00:38:53.907Z,25.20
2022-09-27T00:39:55.703Z,25.05
2022-09-27T00:40:57.530Z,25.04
2022-09-27T00:41:59.353Z,25.20
2022-09-27T00:43:01.100Z,25.03
2022-09-27T00:44:24.798Z,25.04
2022-09-27T00:45:26.576Z,25.23
2022-09-27T00:46:33.991Z,25.21
2022-09-27T00:47:52.378Z,25.20
2022-09-27T00:49:16.509Z,25.28
2022-09-27T00:50:47.942Z,25.45
2022-09-27T00:51:55.866Z,24.91
2022-09-27T00:53:33.891Z,25.29
2022-09-27T00:54:40.184Z,25.14
2022-09-27T00:56:13.117Z,25.23
2022-09-27T00:57:14.911Z,25.36
2022-09-27T00:58:20.982Z,25.25
2022-09-27T00:59:40.834Z,25.22
2022-09-27T01:00:48.726Z,25.34
2022-09-27T01:01:51.204Z,25.20
2022-09-27T01:02:56.208Z,25.24
2022-09-27T01:04:10.877Z,25.30
2022-09-27T01:05:15.554Z,24.97
2022-09-27T01:06:20.740Z,24.34
2022-09-27T01:07:22.770Z,25.04
2022-09-27T01:08:24.634Z,25.12
2022-09-27T01:09:27.533Z,25.25
2022-09-27T01:10:36.803Z,25.24
2022-09-27T01:11:59.487Z,25.29
2022-09-27T01:13:22.705Z,25.16
2022-09-27T01:15:09.512Z,25.38
2022-09-27T01:16:25.939Z,25.06
2022-09-27T01:17:46.079Z,25.41
2022-09-27T01:19:18.371Z,25.37
2022-09-27T01:20:41.740Z,25.37
2022-09-27T01:22:24.214Z,25.41
2022-09-27T01:23:39.509Z,25.38
2022-09-27T01:24:44.750Z,25.35
2022-09-27T01:26:00.222Z,25.31
2022-09-27T01:27:32.950Z,25.27
2022-09-27T01:29:02.388Z,25.34
2022-09-27T01:30:43.578Z,25.38
2022-09-27T01:32:07.886Z,25.26
2022-09-27T01:33:33.625Z,25.20
2022-09-27T01:34:45.724Z,25.06
2022-09-27T01:36:17.431Z,25.30
2022-09-27T01:37:27.542Z,24.99
2022-09-27T01:39:06.647Z,25.34
2022-09-27T01:40:40.503Z,25.20
2022-09-27T01:42:29.350Z,25.38
2022-09-27T01:43:46.557Z,24.70
2022-09-27T01:45:07.021Z,25.19
2022-09-27T01:46:28.133Z,25.22
2022-09-27T01:47:58.567Z,25.09
2022-09-27T01:49:33.576Z,25.18
2022-09-27T01:50:47.187Z,25.08
2022-09-27T01:51:56.350Z,25.06
2022-09-27T01:53:09.176Z,25.15
2022-09-27T01:54:29.004Z,25.26
2022-09-27T01:55:55.995Z,25.24
2022-09-27T01:57:24.840Z,25.24
2022-09-27T01:58:50.452Z,25.05
2022-09-27T01:59:59.508Z,25.10
2022-09-27T02:01:19.231Z,25.01
2022-09-27T02:02:25.243Z,25.09
2022-09-27T02:03:50.026Z,25.20
2022-09-27T02:05:19.702Z,25.13
2022-09-27T02:06:36.015Z,25.26
2022-09-27T02:07:56.723Z,25.12
2022-09-27T02:09:03.767Z,25.13
2022-09-27T02:10:28.114Z,25.26
2022-09-27T02:11:35.899Z,24.70
2022-09-27T02:13:20.179Z,25.29
2022-09-27T02:14:37.661Z,25.28
2022-09-27T02:15:52.750Z,25.18
2022-09-27T02:17:16.529Z,24.99
2022-09-27T02:18:28.659Z,25.13
2022-09-27T02:19:36.281Z,25.24
2022-09-27T02:20:44.776Z,24.82
2022-09-27T02:21:54.584Z,25.21
2022-09-27T02:23:08.432Z,25.20
2022-09-27T02:24:20.222Z,24.98
2022-09-27T02:25:34.568Z,25.24
2022-09-27T02:26:42.340Z,24.57
2022-09-27T02:28:25.019Z,25.24
2022-09-27T02:29:35.907Z,25.27
2022-09-27T02:30:38.557Z,25.11
2022-09-27T02:31:59.530Z,25.17
2022-09-27T02:33:02.384Z,25.06
2022-09-27T02:34:10.240Z,25.12
2022-09-27T02:35:17.914Z,25.17
2022-09-27T02:36:21.370Z,25.17
2022-09-27T02:37:23.810Z,24.96
2022-09-27T02:38:25.902Z,24.96
2022-09-27T02:39:29.019Z,24.60
2022-09-27T02:40:47.096Z,25.16
2022-09-27T02:41:50.138Z,24.79
2022-09-27T02:42:53.050Z,25.12
2022-09-27T02:43:58.447Z,24.93
2022-09-27T02:45:05.635Z,24.90
2022-09-27T02:46:48.754Z,25.18
2022-09-27T02:48:00.136Z,25.25
2022-09-27T02:49:20.592Z,25.23
2022-09-27T02:50:52.345Z,25.17
2022-09-27T02:52:18.407Z,25.26
2022-09-27T02:53:38.278Z,25.15
2022-09-27T02:55:37.408Z,25.32
2022-09-27T02:57:12.317Z,25.34
2022-09-27T02:58:58.185Z,25.31
2022-09-27T03:00:31.395Z,25.13
2022-09-27T03:02:16.477Z,25.15
2022-09-27T03:03:59.028Z,25.34
2022-09-27T03:05:07.053Z,25.23
2022-09-27T03:06:12.338Z,25.22
2022-09-27T03:07:15.399Z,25.18
2022-09-27T03:08:17.497Z,25.17
2022-09-27T03:09:20.843Z,25.04
2022-09-27T03:10:26.298Z,24.99
2022-09-27T03:11:28.301Z,24.76
2022-09-27T03:12:30.106Z,24.76
2022-09-27T03:13:32.181Z,24.99
2022-09-27T03:14:34.672Z,24.98
2022-09-27T03:15:46.009Z,24.84
2022-09-27T03:16:54.045Z,25.14
2022-09-27T03:18:31.738Z,25.09
2022-09-27T03:19:53.884Z,25.16
2022-09-27T03:21:24.778Z,24.98
2022-09-27T03:22:26.999Z,25.11
2022-09-27T03:23:29.037Z,24.40
2022-09-27T03:24:31.446Z,25.10
2022-09-27T03:25:33.322Z,24.94
2022-09-27T03:26:35.067Z,24.95
2022-09-27T03:27:36.995Z,24.99
2022-09-27T03:28:38.857Z,24.91
2022-09-27T03:29:40.661Z,24.91
2022-09-27T03:30:46.419Z,24.97
2022-09-27T03:31:56.739Z,24.93
2022-09-27T03:33:16.810Z,25.03
2022-09-27T03:34:22.311Z,24.61
2022-09-27T03:35:24.064Z,24.99
2022-09-27T03:36:25.839Z,24.90
2022-09-27T03:37:29.526Z,25.04
2022-09-27T03:38:31.324Z,24.88
2022-09-27T03:39:33.378Z,25.03
2022-09-27T03:40:36.455Z,24.90
2022-09-27T03:41:39.481Z,24.90
2022-09-27T03:42:43.251Z,25.03
2022-09-27T03:43:48.326Z,24.97
2022-09-27T03:44:51.562Z,25.12
2022-09-27T03:45:53.795Z,24.93
2022-09-27T03:46:55.681Z,24.96
2022-09-27T03:47:57.462Z,24.94
2022-09-27T03:48:59.371Z,24.98
2022-09-27T03:50:01.107Z,24.90
2022-09-27T03:51:04.556Z,24.97
2022-09-27T03:52:06.413Z,24.96
2022-09-27T03:53:08.607Z,24.98
2022-09-27T03:54:10.651Z,24.96
2022-09-27T03:55:13.624Z,24.88
2022-09-27T03:56:15.747Z,24.81
2022-09-27T03:57:17.611Z,24.89
2022-09-27T03:58:20.246Z,25.01
2022-09-27T03:59:22.365Z,24.95
2022-09-27T04:01:02.468Z,24.79
2022-09-27T04:02:06.362Z,24.60
2022-09-27T04:03:36.907Z,25.09
2022-09-27T04:05:11.375Z,25.15
2022-09-27T04:06:14.083Z,25.13
2022-09-27T04:07:19.202Z,25.04
2022-09-27T04:08:22.343Z,24.96
2022-09-27T04:09:25.528Z,25.00
2022-09-27T04:10:36.846Z,24.99
2022-09-27T04:11:38.835Z,24.94
2022-09-27T04:12:41.029Z,24.87
2022-09-27T04:13:44.590Z,25.11
2022-09-27T04:14:47.375Z,24.59
2022-09-27T04:16:21.328Z,24.66
2022-09-27T04:17:42.968Z,25.09
2022-09-27T04:19:08.898Z,25.13
2022-09-27T04:20:23.611Z,25.14
2022-09-27T04:21:25.438Z,25.04
2022-09-27T04:22:28.444Z,25.09
2022-09-27T04:23:30.986Z,24.75
2022-09-27T04:24:34.169Z,24.71
2022-09-27T04:25:53.379Z,24.95
2022-09-27T04:27:13.393Z,25.10
2022-09-27T04:28:17.209Z,24.99
2022-09-27T04:29:19.018Z,25.06
2022-09-27T04:30:26.558Z,25.05
2022-09-27T04:31:46.511Z,25.04
2022-09-27T04:33:10.379Z,24.93
2022-09-27T04:34:48.722Z,25.08
2022-09-27T04:36:15.211Z,25.01
2022-09-27T04:37:31.850Z,25.11
2022-09-27T04:38:37.407Z,25.14
2022-09-27T04:39:40.158Z,25.17
2022-09-27T04:40:42.119Z,24.98
2022-09-27T04:41:45.168Z,24.66
2022-09-27T04:42:47.450Z,24.70
2022-09-27T04:43:54.112Z,25.10
2022-09-27T04:44:58.451Z,25.03
2022-09-27T04:46:00.429Z,24.92
2022-09-27T04:47:02.477Z,24.75
2022-09-27T04:48:04.951Z,24.96
2022-09-27T04:49:07.073Z,25.11
2022-09-27T04:50:12.418Z,25.10
2022-09-27T04:51:17.339Z,24.95
2022-09-27T04:52:19.113Z,24.89
2022-09-27T04:53:20.929Z,24.35
2022-09-27T04:54:22.902Z,24.90
2022-09-27T04:55:47.456Z,25.14
2022-09-27T04:56:49.270Z,25.02
2022-09-27T04:57:51.031Z,24.98
2022-09-27T04:58:54.009Z,25.02
2022-09-27T04:59:56.071Z,25.04
2022-09-27T05:00:57.927Z,25.00
2022-09-27T05:02:29.681Z,24.20
2022-09-27T05:03:57.281Z,25.07
2022-09-27T05:05:00.652Z,24.98
2022-09-27T05:06:09.098Z,25.05
2022-09-27T05:07:11.254Z,24.88
2022-09-27T05:08:18.871Z,25.05
2022-09-27T05:09:49.934Z,25.10
2022-09-27T05:10:51.778Z,24.36
2022-09-27T05:11:55.109Z,24.26
2022-09-27T05:13:19.625Z,25.22
2022-09-27T05:14:21.459Z,24.80
2022-09-27T05:15:43.510Z,25.07
2022-09-27T05:17:03.886Z,25.30
2022-09-27T05:18:21.898Z,25.24
2022-09-27T05:19:42.419Z,25.34
2022-09-27T05:21:03.110Z,24.94
2022-09-27T05:22:13.459Z,25.01
2022-09-27T05:23:15.521Z,25.00
2022-09-27T05:24:17.264Z,24.54
2022-09-27T05:25:19.585Z,25.18
2022-09-27T05:26:21.556Z,25.40
2022-09-27T05:27:23.443Z,25.15
2022-09-27T05:28:25.314Z,25.39
2022-09-27T05:29:28.225Z,25.25
2022-09-27T05:30:49.864Z,25.58
2022-09-27T05:31:56.280Z,25.61
2022-09-27T05:32:58.125Z,25.63
2022-09-27T05:34:28.787Z,25.62
2022-09-27T05:35:34.086Z,25.67
2022-09-27T05:36:35.891Z,25.73
2022-09-27T05:37:38.608Z,25.85
2022-09-27T05:38:41.988Z,25.65
2022-09-27T05:39:43.850Z,25.69
2022-09-27T05:40:47.859Z,25.43
2022-09-27T05:42:57.129Z,25.98
2022-09-27T05:43:59.686Z,25.43
2022-09-27T05:45:02.053Z,25.26
2022-09-27T05:46:05.627Z,25.96
2022-09-27T05:47:08.473Z,25.87
2022-09-27T05:48:10.708Z,26.07
2022-09-27T05:49:20.219Z,25.87
2022-09-27T05:50:22.614Z,26.13
2022-09-27T05:51:24.566Z,25.91
2022-09-27T05:52:26.635Z,26.09
2022-09-27T05:53:29.203Z,26.10
2022-09-27T05:54:31.843Z,25.97
2022-09-27T05:55:34.764Z,25.97
2022-09-27T05:56:36.575Z,26.07
2022-09-27T05:58:07.307Z,26.11
2022-09-27T05:59:21.699Z,26.25
2022-09-27T06:00:44.036Z,26.00
2022-09-27T06:02:05.839Z,26.25
2022-09-27T06:03:26.083Z,26.11
2022-09-27T06:04:46.509Z,26.18
2022-09-27T06:06:10.932Z,26.28
2022-09-27T06:07:20.847Z,25.97
2022-09-27T06:08:22.712Z,26.29
2022-09-27T06:09:28.295Z,26.09
2022-09-27T06:10:32.070Z,26.41
2022-09-27T06:11:35.130Z,26.24
2022-09-27T06:12:37.056Z,26.26
2022-09-27T06:13:43.184Z,26.26
2022-09-27T06:14:48.189Z,26.31
2022-09-27T06:16:03.607Z,26.48
2022-09-27T06:17:05.523Z,26.17
2022-09-27T06:18:12.591Z,26.46
2022-09-27T06:19:15.256Z,25.98
2022-09-27T06:20:18.593Z,26.30
2022-09-27T06:21:22.690Z,26.21
2022-09-27T06:22:30.799Z,26.48
2022-09-27T06:23:35.637Z,25.71
2022-09-27T06:24:45.369Z,26.33
2022-09-27T06:25:55.440Z,26.54
2022-09-27T06:27:18.839Z,26.50
2022-09-27T06:28:43.564Z,26.57
2022-09-27T06:29:46.321Z,26.20
2022-09-27T06:31:00.598Z,26.44
2022-09-27T06:32:15.712Z,25.72
2022-09-27T06:33:25.607Z,26.43
2022-09-27T06:34:29.703Z,26.51
2022-09-27T06:35:32.193Z,26.54
2022-09-27T06:36:34.013Z,26.41
2022-09-27T06:37:36.865Z,26.59
2022-09-27T06:38:38.640Z,26.39
2022-09-27T06:39:49.171Z,26.53
2022-09-27T06:41:17.266Z,26.67
2022-09-27T06:42:28.328Z,26.48
2022-09-27T06:43:39.873Z,26.60
2022-09-27T06:44:50.518Z,26.32
2022-09-27T06:46:11.057Z,26.58
2022-09-27T06:47:29.244Z,26.54
2022-09-27T06:48:47.410Z,26.72
2022-09-27T06:49:50.777Z,26.51
2022-09-27T06:50:54.216Z,26.54
2022-09-27T06:51:57.206Z,26.51
2022-09-27T06:52:59.865Z,26.65
2022-09-27T06:54:01.682Z,26.28
2022-09-27T06:55:05.126Z,26.40
2022-09-27T06:56:08.755Z,26.46
2022-09-27T06:57:47.141Z,26.27
2022-09-27T06:59:07.856Z,26.70
2022-09-27T07:00:38.368Z,26.81
2022-09-27T07:02:19.278Z,26.74
2022-09-27T07:03:37.842Z,25.97
2022-09-27T07:04:54.811Z,26.59
2022-09-27T07:06:18.013Z,26.78
2022-09-27T07:07:24.766Z,26.59
2022-09-27T07:08:28.833Z,26.60
2022-09-27T07:09:31.330Z,26.54
2022-09-27T07:10:36.300Z,26.65
2022-09-27T07:11:38.189Z,25.85
2022-09-27T07:12:40.160Z,26.56
2022-09-27T07:13:43.680Z,26.70
2022-09-27T07:14:45.574Z,26.58
2022-09-27T07:15:50.173Z,26.63
2022-09-27T07:16:51.973Z,26.29
2022-09-27T07:17:58.523Z,26.63
2022-09-27T07:19:02.302Z,26.32
2022-09-27T07:20:05.548Z,26.57
2022-09-27T07:21:08.815Z,26.44
2022-09-27T07:22:10.652Z,26.47
2022-09-27T07:23:14.925Z,26.70
2022-09-27T07:24:17.460Z,26.67
2022-09-27T07:25:20.219Z,26.62
2022-09-27T07:26:22.918Z,26.58
2022-09-27T07:27:26.005Z,26.54
2022-09-27T07:28:28.595Z,26.63
2022-09-27T07:29:30.487Z,26.62
2022-09-27T07:30:35.135Z,26.72
2022-09-27T07:31:37.894Z,26.62
2022-09-27T07:32:41.116Z,26.68
2022-09-27T07:33:44.704Z,26.58
2022-09-27T07:34:46.473Z,26.44
2022-09-27T07:35:48.257Z,26.69
2022-09-27T07:36:50.113Z,26.63
2022-09-27T07:37:52.476Z,26.52
2022-09-27T07:38:54.299Z,26.26
2022-09-27T07:40:00.808Z,26.73
2022-09-27T07:41:07.131Z,26.56
2022-09-27T07:42:11.848Z,26.72
2022-09-27T07:43:19.584Z,26.04
2022-09-27T07:44:21.582Z,26.40
2022-09-27T07:45:47.120Z,26.60
2022-09-27T07:47:12.190Z,26.68
2022-09-27T07:48:36.907Z,26.84
2022-09-27T07:49:48.567Z,26.62
2022-09-27T07:51:10.919Z,26.37
2022-09-27T07:52:21.408Z,26.74
2022-09-27T07:53:49.097Z,26.80
2022-09-27T07:55:10.895Z,26.70
2022-09-27T07:56:35.792Z,26.55
2022-09-27T07:57:40.056Z,26.64
2022-09-27T07:58:42.135Z,26.62
2022-09-27T07:59:44.086Z,26.53
2022-09-27T08:00:48.065Z,26.37
2022-09-27T08:01:50.657Z,26.72
2022-09-27T08:02:52.478Z,26.73
2022-09-27T08:03:54.433Z,26.53
2022-09-27T08:04:56.851Z,26.14
2022-09-27T08:06:04.339Z,26.64
2022-09-27T08:07:06.521Z,26.68
2022-09-27T08:08:09.094Z,26.54
2022-09-27T08:09:10.975Z,26.59
2022-09-27T08:10:14.670Z,26.64
2022-09-27T08:11:19.108Z,26.66
2022-09-27T08:12:23.921Z,25.83
2022-09-27T08:13:25.825Z,26.69
2022-09-27T08:14:28.599Z,26.73
2022-09-27T08:15:39.210Z,26.58
2022-09-27T08:16:42.003Z,26.70
2022-09-27T08:17:53.638Z,26.76
2022-09-27T08:19:18.288Z,26.65
2022-09-27T08:20:40.194Z,26.72
2022-09-27T08:22:00.561Z,26.53
2022-09-27T08:23:08.360Z,26.75
2022-09-27T08:24:13.028Z,26.57
2022-09-27T08:25:36.485Z,26.79
2022-09-27T08:26:56.925Z,26.58
2022-09-27T08:28:13.241Z,25.55
2022-09-27T08:29:18.962Z,26.63
2022-09-27T08:30:27.347Z,26.17
2022-09-27T08:31:29.148Z,26.68
2022-09-27T08:32:32.930Z,26.64
2022-09-27T08:33:41.225Z,26.55
2022-09-27T08:34:44.504Z,26.51
2022-09-27T08:35:46.505Z,26.63
2022-09-27T08:36:48.615Z,26.59
2022-09-27T08:37:57.440Z,26.55
2022-09-27T08:39:00.551Z,26.43
2022-09-27T08:40:15.247Z,26.54
2022-09-27T08:41:39.063Z,26.76
2022-09-27T08:42:58.327Z,26.57
2022-09-27T08:44:03.041Z,26.78
2022-09-27T08:45:17.994Z,26.73
2022-09-27T08:46:31.854Z,26.75
2022-09-27T08:47:45.178Z,26.62
2022-09-27T08:48:54.100Z,26.57
2022-09-27T08:50:40.034Z,26.65
2022-09-27T08:51:50.929Z,26.77
2022-09-27T08:53:03.171Z,26.77
2022-09-27T08:54:20.404Z,26.76
2022-09-27T08:55:27.819Z,26.76
2022-09-27T08:56:31.592Z,26.45
2022-09-27T08:57:33.458Z,26.60
2022-09-27T08:58:39.550Z,26.68
2022-09-27T08:59:55.188Z,26.26
2022-09-27T09:01:03.386Z,26.71
2022-09-27T09:02:20.200Z,26.52
2022-09-27T09:03:28.155Z,26.55
2022-09-27T09:04:37.989Z,25.52
2022-09-27T09:05:39.819Z,26.50
2022-09-27T09:06:41.859Z,26.72
2022-09-27T09:08:01.986Z,26.73
2022-09-27T09:09:42.226Z,26.77
2022-09-27T09:11:42.201Z,26.68
2022-09-27T09:12:47.527Z,26.85
2022-09-27T09:13:53.247Z,26.78
2022-09-27T09:15:13.110Z,26.73
2022-09-27T09:16:16.023Z,26.75
2022-09-27T09:17:32.983Z,26.73
2022-09-27T09:18:53.618Z,26.75
2022-09-27T09:20:25.551Z,26.37
2022-09-27T09:21:48.091Z,26.76
2022-09-27T09:23:10.919Z,26.76
2022-09-27T09:24:45.526Z,26.80
2022-09-27T09:25:55.214Z,26.80
2022-09-27T09:27:22.935Z,26.74
2022-09-27T09:28:36.526Z,26.78
2022-09-27T09:30:05.644Z,26.79
2022-09-27T09:31:42.671Z,26.84
2022-09-27T09:33:16.026Z,26.81
2022-09-27T09:34:18.488Z,26.81
2022-09-27T09:35:26.796Z,26.56
2022-09-27T09:36:57.805Z,26.78
2022-09-27T09:38:03.999Z,26.55
2022-09-27T09:39:24.536Z,25.92
2022-09-27T09:40:37.442Z,26.68
2022-09-27T09:42:12.829Z,26.80
2022-09-27T09:43:41.903Z,26.82
2022-09-27T09:45:02.417Z,26.61
2022-09-27T09:46:40.194Z,26.67
2022-09-27T09:48:18.274Z,26.83
2022-09-27T09:49:30.803Z,26.35
2022-09-27T09:50:49.826Z,26.35
2022-09-27T09:51:59.143Z,26.76
2022-09-27T09:53:13.812Z,26.74
2022-09-27T09:54:24.338Z,26.57
2022-09-27T09:55:36.739Z,26.53
2022-09-27T09:56:47.939Z,26.43
2022-09-27T09:57:57.715Z,26.71
2022-09-27T09:59:09.947Z,26.52
2022-09-27T10:00:18.925Z,26.71
2022-09-27T10:01:33.441Z,26.49
2022-09-27T10:02:38.735Z,26.64
2022-09-27T10:03:46.639Z,26.37
2022-09-27T10:04:48.828Z,26.60
2022-09-27T10:05:51.269Z,26.30
2022-09-27T10:06:55.445Z,25.79
2022-09-27T10:08:02.348Z,26.43
2022-09-27T10:09:04.562Z,26.60
2022-09-27T10:10:20.353Z,26.70
2022-09-27T10:11:50.212Z,26.68
2022-09-27T10:12:57.489Z,26.28
2022-09-27T10:14:12.076Z,26.58
2022-09-27T10:15:28.307Z,26.59
2022-09-27T10:16:30.818Z,26.67
2022-09-27T10:17:40.377Z,26.72
2022-09-27T10:18:49.687Z,26.65
2022-09-27T10:19:54.354Z,25.81
2022-09-27T10:21:00.124Z,26.71
2022-09-27T10:22:12.298Z,26.61
2022-09-27T10:23:19.358Z,26.54
2022-09-27T10:25:07.062Z,26.81
2022-09-27T10:26:22.505Z,26.49
2022-09-27T10:27:26.835Z,26.69
2022-09-27T10:28:42.677Z,26.57
2022-09-27T10:29:45.302Z,26.77
2022-09-27T10:30:58.327Z,26.48
2022-09-27T10:32:18.583Z,26.75
2022-09-27T10:33:21.101Z,26.63
2022-09-27T10:34:34.659Z,26.70
2022-09-27T10:35:42.360Z,26.70
2022-09-27T10:37:21.891Z,25.93
2022-09-27T10:38:37.275Z,26.45
2022-09-27T10:39:46.665Z,26.64
2022-09-27T10:40:52.464Z,26.63
2022-09-27T10:41:54.399Z,26.66
2022-09-27T10:43:37.129Z,26.68
2022-09-27T10:44:57.360Z,26.60
2022-09-27T10:46:20.794Z,26.80
2022-09-27T10:47:27.151Z,26.31
2022-09-27T10:48:42.133Z,25.98
2022-09-27T10:49:45.254Z,26.76
2022-09-27T10:51:31.438Z,26.82
2022-09-27T10:52:34.319Z,26.37
2022-09-27T10:53:37.691Z,26.61
2022-09-27T10:54:58.092Z,26.77
2022-09-27T10:56:02.420Z,26.71
2022-09-27T10:57:15.743Z,26.62
2022-09-27T10:58:31.108Z,26.05
2022-09-27T10:59:42.633Z,26.76
2022-09-27T11:00:44.717Z,26.39
2022-09-27T11:01:50.211Z,26.49
2022-09-27T11:03:17.034Z,26.52
2022-09-27T11:04:35.189Z,26.41
2022-09-27T11:05:39.653Z,26.56
2022-09-27T11:06:41.730Z,26.60
2022-09-27T11:07:53.879Z,26.67
2022-09-27T11:09:52.782Z,26.84
2022-09-27T11:11:03.346Z,26.82
2022-09-27T11:12:13.219Z,26.59
2022-09-27T11:13:18.811Z,26.61
2022-09-27T11:14:25.319Z,26.46
2022-09-27T11:15:31.106Z,26.71
2022-09-27T11:16:37.234Z,26.70
2022-09-27T11:18:10.367Z,26.77
2022-09-27T11:19:24.041Z,26.73
2022-09-27T11:20:39.422Z,26.63
2022-09-27T11:21:42.618Z,26.76
2022-09-27T11:23:04.816Z,26.33
2022-09-27T11:24:19.244Z,26.62
2022-09-27T11:25:39.955Z,26.77
2022-09-27T11:26:54.328Z,26.77
2022-09-27T11:28:08.180Z,26.77
2022-09-27T11:29:32.662Z,26.77
2022-09-27T11:31:18.837Z,26.66
2022-09-27T11:32:55.538Z,26.83
2022-09-27T11:34:21.996Z,26.88
2022-09-27T11:35:38.038Z,26.84
2022-09-27T11:36:54.661Z,26.82
2022-09-27T11:38:24.791Z,26.69
2022-09-27T11:39:58.545Z,26.86
2022-09-27T11:41:07.415Z,26.84
2022-09-27T11:42:34.391Z,26.82
2022-09-27T11:43:50.290Z,26.81
2022-09-27T11:45:37.134Z,26.81
2022-09-27T11:46:42.477Z,26.71
2022-09-27T11:48:10.832Z,26.83
2022-09-27T11:49:42.617Z,26.82
2022-09-27T11:50:46.660Z,26.63
2022-09-27T11:51:59.307Z,26.59
2022-09-27T11:53:25.156Z,26.73
2022-09-27T11:54:44.406Z,26.81
2022-09-27T11:56:15.585Z,26.63
2022-09-27T11:57:52.175Z,26.72
2022-09-27T11:59:22.453Z,26.63
2022-09-27T12:00:50.660Z,26.85
2022-09-27T12:02:21.693Z,26.83
2022-09-27T12:03:35.059Z,26.54
2022-09-27T12:05:04.121Z,26.67
2022-09-27T12:06:13.395Z,26.72
2022-09-27T12:07:45.967Z,26.84
2022-09-27T12:09:03.135Z,26.57
2022-09-27T12:10:13.483Z,26.80
2022-09-27T12:11:39.149Z,26.79
2022-09-27T12:12:45.962Z,26.56
2022-09-27T12:13:53.189Z,26.76
2022-09-27T12:15:14.412Z,26.72
2022-09-27T12:16:19.725Z,26.52
2022-09-27T12:17:29.849Z,26.50
2022-09-27T12:18:38.997Z,25.91
2022-09-27T12:19:53.359Z,26.64
2022-09-27T12:21:25.308Z,26.63
2022-09-27T12:22:57.652Z,26.37
2022-09-27T12:24:01.225Z,26.80
2022-09-27T12:25:21.199Z,26.65
2022-09-27T12:26:43.756Z,26.61
2022-09-27T12:27:49.243Z,26.79
2022-09-27T12:28:58.663Z,26.75
2022-09-27T12:30:01.759Z,26.07
2022-09-27T12:31:29.829Z,26.32
2022-09-27T12:32:53.776Z,26.42
2022-09-27T12:34:33.689Z,26.86
2022-09-27T12:35:44.266Z,26.53
2022-09-27T12:37:21.806Z,26.84
2022-09-27T12:38:30.277Z,26.85
2022-09-27T12:39:40.531Z,26.68
2022-09-27T12:40:58.707Z,26.57
2022-09-27T12:42:21.431Z,26.53
2022-09-27T12:43:27.797Z,26.77
2022-09-27T12:44:44.788Z,26.57
2022-09-27T12:46:31.984Z,26.63
2022-09-27T12:47:56.056Z,26.83
2022-09-27T12:49:25.473Z,26.82
2022-09-27T12:50:37.877Z,26.69
2022-09-27T12:51:52.576Z,26.79
2022-09-27T12:53:04.539Z,26.77
2022-09-27T12:54:25.346Z,26.79
2022-09-27T12:55:45.901Z,26.38
2022-09-27T12:57:18.250Z,26.69
2022-09-27T12:58:45.336Z,26.80
2022-09-27T13:00:04.619Z,26.65
2022-09-27T13:01:35.604Z,26.60
2022-09-27T13:03:16.060Z,26.78
2022-09-27T13:04:51.961Z,26.83
2022-09-27T13:06:32.018Z,26.86
2022-09-27T13:08:11.924Z,26.88
2022-09-27T13:09:21.614Z,26.69
2022-09-27T13:10:45.352Z,26.79
2022-09-27T13:12:05.180Z,26.84
2022-09-27T13:13:13.846Z,26.54
2022-09-27T13:14:24.064Z,26.57
2022-09-27T13:15:30.722Z,26.68
2022-09-27T13:16:43.838Z,26.19
2022-09-27T13:17:53.376Z,26.29
2022-09-27T13:19:43.110Z,26.86
2022-09-27T13:20:49.479Z,26.77
2022-09-27T13:22:00.304Z,26.36
2022-09-27T13:23:29.324Z,26.83
2022-09-27T13:24:41.492Z,26.81
2022-09-27T13:25:56.330Z,26.81
2022-09-27T13:27:25.987Z,26.84
2022-09-27T13:28:29.424Z,26.82
2022-09-27T13:29:33.959Z,26.59
2022-09-27T13:30:41.541Z,26.80
2022-09-27T13:31:55.764Z,26.78
2022-09-27T13:33:08.617Z,26.80
2022-09-27T13:34:42.556Z,26.48
2022-09-27T13:36:26.162Z,26.64
2022-09-27T13:37:56.982Z,26.57
2022-09-27T13:39:21.438Z,26.77
2022-09-27T13:40:46.350Z,26.50
2022-09-27T13:41:48.868Z,26.84
2022-09-27T13:42:55.720Z,26.79
2022-09-27T13:44:19.513Z,26.79
2022-09-27T13:45:35.997Z,26.51
2022-09-27T13:47:06.730Z,26.72
2022-09-27T13:48:16.414Z,26.48
2022-09-27T13:49:26.130Z,26.77
2022-09-27T13:51:01.392Z,26.49
2022-09-27T13:52:15.465Z,26.86
2022-09-27T13:53:27.629Z,26.66
2022-09-27T13:54:57.816Z,26.87
2022-09-27T13:56:05.694Z,26.57
2022-09-27T13:57:43.902Z,26.86
2022-09-27T13:59:04.499Z,26.59
2022-09-27T14:00:29.821Z,26.68
2022-09-27T14:01:53.350Z,26.58
2022-09-27T14:03:15.713Z,26.86
2022-09-27T14:04:30.958Z,26.82
2022-09-27T14:05:38.913Z,26.04
2022-09-27T14:06:48.613Z,26.80
2022-09-27T14:07:53.217Z,26.59
2022-09-27T14:08:59.783Z,26.76
2022-09-27T14:10:03.171Z,26.76
2022-09-27T14:11:15.603Z,26.34
2022-09-27T14:12:21.753Z,26.47
2022-09-27T14:13:27.379Z,26.51
2022-09-27T14:14:38.966Z,26.63
2022-09-27T14:15:40.960Z,26.26
2022-09-27T14:16:48.130Z,26.75
2022-09-27T14:17:51.882Z,26.61
2022-09-27T14:18:59.660Z,26.74
2022-09-27T14:20:32.111Z,26.00
2022-09-27T14:21:40.282Z,26.80
2022-09-27T14:22:57.902Z,26.35
2022-09-27T14:24:29.945Z,26.83
2022-09-27T14:25:40.005Z,26.68
2022-09-27T14:26:42.998Z,26.60
2022-09-27T14:27:44.764Z,26.67
2022-09-27T14:29:21.372Z,26.59
2022-09-27T14:30:25.458Z,26.41
2022-09-27T14:31:39.515Z,26.80
2022-09-27T14:32:55.207Z,26.57
2022-09-27T14:34:13.495Z,26.78
2022-09-27T14:35:42.356Z,26.48
2022-09-27T14:37:04.060Z,26.65
2022-09-27T14:38:40.010Z,26.80
2022-09-27T14:39:55.234Z,26.15
2022-09-27T14:41:10.807Z,26.72
2022-09-27T14:42:25.250Z,26.62
2022-09-27T14:43:29.024Z,26.78
2022-09-27T14:44:31.879Z,25.95
2022-09-27T14:45:37.682Z,26.72
2022-09-27T14:46:39.624Z,26.72
2022-09-27T14:47:53.951Z,26.72
2022-09-27T14:48:56.434Z,26.53
2022-09-27T14:50:01.489Z,26.71
2022-09-27T14:51:07.596Z,26.54
2022-09-27T14:52:18.083Z,25.88
2022-09-27T14:53:25.039Z,26.63
2022-09-27T14:54:30.640Z,26.02
2022-09-27T14:55:35.151Z,26.39
2022-09-27T14:56:38.613Z,26.49
2022-09-27T14:57:46.110Z,26.70
2022-09-27T14:59:02.574Z,26.60
2022-09-27T15:00:23.427Z,26.57
2022-09-27T15:01:25.336Z,26.65
2022-09-27T15:02:28.262Z,26.73
2022-09-27T15:03:37.531Z,26.70
2022-09-27T15:04:46.781Z,26.53
2022-09-27T15:05:48.895Z,26.34
2022-09-27T15:06:51.394Z,26.41
2022-09-27T15:07:55.866Z,26.54
2022-09-27T15:09:00.136Z,26.23
2022-09-27T15:10:02.040Z,26.53
2022-09-27T15:11:06.496Z,26.50
2022-09-27T15:12:11.009Z,26.44
2022-09-27T15:13:16.416Z,26.10
2022-09-27T15:14:20.550Z,26.53
2022-09-27T15:15:25.980Z,26.45
2022-09-27T15:16:28.238Z,26.12
2022-09-27T15:17:42.437Z,26.37
2022-09-27T15:18:47.077Z,26.57
2022-09-27T15:20:04.806Z,26.70
2022-09-27T15:21:09.018Z,26.51
2022-09-27T15:22:37.748Z,26.72
2022-09-27T15:23:44.841Z,26.63
2022-09-27T15:24:47.644Z,26.61
2022-09-27T15:26:16.508Z,26.58
2022-09-27T15:27:26.204Z,26.58
2022-09-27T15:28:28.155Z,26.22
2022-09-27T15:29:29.916Z,26.45
2022-09-27T15:30:38.978Z,26.65
2022-09-27T15:31:40.890Z,26.11
2022-09-27T15:32:50.374Z,25.89
2022-09-27T15:33:55.594Z,26.67
2022-09-27T15:34:57.760Z,26.67
2022-09-27T15:36:04.042Z,26.66
2022-09-27T15:37:06.653Z,25.87